Time;durP1;ratioP1;P1;durP2;ratioP2;P2;SDS_P1;SDS_P2;PMS_P1;PMS_P2;Temp;Humidity;BMP_temperature;BMP_pressure;BME280_temperature;BME280_humidity;BME280_pressure;Samples;Min_cycle;Max_cycle;Signal;HPM_P1;HPM_P2
2021/01/16 00:01:36;;;;;;;16.17;12.63;;;1.10;99.90;;;;;;4944724;28;20221;-68
2021/01/16 00:04:02;;;;;;;19.37;13.37;;;1.20;99.90;;;;;;4948302;28;20172;-68
2021/01/16 00:06:30;;;;;;;16.23;13.70;;;1.20;99.90;;;;;;4964689;28;20180;-68
2021/01/16 00:08:56;;;;;;;20.27;14.30;;;1.20;99.90;;;;;;4959279;28;21766;-68
2021/01/16 00:11:22;;;;;;;16.17;12.20;;;1.30;99.90;;;;;;4951933;28;20543;-68
2021/01/16 00:13:48;;;;;;;16.40;12.43;;;1.20;99.90;;;;;;4966671;28;20580;-68
2021/01/16 00:16:14;;;;;;;18.97;13.27;;;1.20;99.90;;;;;;4957212;28;20606;-68
2021/01/16 00:18:39;;;;;;;16.30;12.63;;;1.10;99.90;;;;;;4958282;28;20193;-68
2021/01/16 00:21:05;;;;;;;19.47;12.60;;;1.20;99.90;;;;;;4962900;28;20475;-68
2021/01/16 00:23:30;;;;;;;19.80;12.43;;;1.20;99.90;;;;;;4957323;28;20592;-68
2021/01/16 00:25:57;;;;;;;17.70;12.27;;;1.20;99.90;;;;;;4970385;28;20184;-68
2021/01/16 00:28:24;;;;;;;21.17;15.27;;;1.20;99.90;;;;;;4952476;28;20651;-68
2021/01/16 00:30:50;;;;;;;17.00;12.50;;;1.20;99.90;;;;;;4953900;28;20508;-67
2021/01/16 00:33:26;;;;;;;20.70;13.80;;;1.20;99.90;;;;;;4945369;28;20445;-68
2021/01/16 00:35:54;;;;;;;17.10;12.23;;;1.30;99.90;;;;;;4950817;28;20432;-68
2021/01/16 00:38:21;;;;;;;16.27;11.97;;;1.30;99.90;;;;;;4954755;28;20499;-68
2021/01/16 00:40:47;;;;;;;14.70;11.90;;;1.20;99.90;;;;;;4952732;28;20905;-68
2021/01/16 00:43:15;;;;;;;18.47;12.53;;;1.20;99.90;;;;;;4952516;28;20483;-68
2021/01/16 00:45:42;;;;;;;17.07;12.43;;;1.30;99.90;;;;;;4968359;28;20180;-68
2021/01/16 00:48:16;;;;;;;15.77;12.17;;;1.20;99.90;;;;;;4940789;28;20499;-68
2021/01/16 00:50:43;;;;;;;18.30;13.50;;;1.10;99.90;;;;;;4963297;28;20846;-68
2021/01/16 00:53:09;;;;;;;18.47;13.00;;;1.10;99.90;;;;;;4966733;28;21151;-68
2021/01/16 00:55:35;;;;;;;20.10;13.10;;;1.10;99.90;;;;;;4965046;28;20840;-68
2021/01/16 00:58:08;;;;;;;17.83;12.27;;;1.10;99.90;;;;;;4955473;28;20499;-68
2021/01/16 01:00:33;;;;;;;15.80;11.70;;;1.10;99.90;;;;;;4953516;28;20829;-68
2021/01/16 01:02:59;;;;;;;16.73;11.97;;;1.10;99.90;;;;;;4963289;28;20526;-68
2021/01/16 01:05:24;;;;;;;20.87;13.33;;;1.10;99.90;;;;;;4965271;28;20628;-68
2021/01/16 01:07:52;;;;;;;17.10;12.80;;;1.00;99.90;;;;;;4941086;28;20616;-68
2021/01/16 01:10:25;;;;;;;20.07;14.33;;;1.10;99.90;;;;;;4940960;28;20180;-68
2021/01/16 01:12:52;;;;;;;22.00;14.90;;;1.10;99.90;;;;;;4946536;28;20496;-68
2021/01/16 01:15:17;;;;;;;21.83;11.77;;;1.10;99.90;;;;;;4965650;28;20433;-68
2021/01/16 01:17:48;;;;;;;17.30;13.47;;;1.10;99.90;;;;;;4967307;28;20951;-68
2021/01/16 01:20:14;;;;;;;19.33;13.23;;;1.10;99.90;;;;;;4955502;28;20179;-68
2021/01/16 01:22:39;;;;;;;18.13;12.47;;;1.10;99.90;;;;;;4959170;28;20819;-68
2021/01/16 01:25:06;;;;;;;21.57;14.17;;;1.10;99.90;;;;;;4961199;28;20184;-68
2021/01/16 01:27:32;;;;;;;19.90;12.83;;;1.20;99.90;;;;;;4965806;28;20833;-68
2021/01/16 01:29:59;;;;;;;19.20;13.67;;;1.20;99.90;;;;;;4944865;28;20446;-68
2021/01/16 01:32:24;;;;;;;17.27;12.50;;;1.10;99.90;;;;;;4939321;28;20461;-68
2021/01/16 01:34:50;;;;;;;19.10;15.07;;;1.10;99.90;;;;;;4949082;28;20798;-68
2021/01/16 01:37:16;;;;;;;19.37;14.27;;;1.10;99.90;;;;;;4949086;28;20201;-68
2021/01/16 01:39:41;;;;;;;23.40;16.87;;;1.10;99.90;;;;;;4951535;28;20212;-68
2021/01/16 01:42:12;;;;;;;21.67;15.07;;;1.10;99.90;;;;;;4960190;28;20215;-68
2021/01/16 01:44:38;;;;;;;22.47;16.83;;;1.10;99.90;;;;;;4951431;28;20643;-68
2021/01/16 01:47:03;;;;;;;22.23;15.10;;;1.10;99.90;;;;;;4964573;28;20439;-68
2021/01/16 01:49:29;;;;;;;23.17;14.67;;;1.10;99.90;;;;;;4948065;28;20177;-68
2021/01/16 01:51:55;;;;;;;21.23;14.40;;;1.10;99.90;;;;;;4953907;28;20209;-68
2021/01/16 01:54:23;;;;;;;22.43;14.50;;;1.00;99.90;;;;;;4951736;28;20211;-68
2021/01/16 01:56:52;;;;;;;22.53;15.13;;;1.10;99.90;;;;;;4959328;28;20942;-67
2021/01/16 01:59:18;;;;;;;22.00;14.40;;;1.10;99.90;;;;;;4952106;28;20519;-68
2021/01/16 02:01:50;;;;;;;19.13;14.63;;;1.00;99.90;;;;;;4954158;28;20547;-68
2021/01/16 02:04:18;;;;;;;20.93;14.20;;;1.10;99.90;;;;;;4953593;28;20174;-68
2021/01/16 02:06:44;;;;;;;21.60;14.50;;;1.10;99.90;;;;;;4958639;28;20443;-68
2021/01/16 02:09:09;;;;;;;20.90;13.10;;;1.10;99.90;;;;;;4967060;28;20439;-68
2021/01/16 02:11:35;;;;;;;21.87;15.07;;;1.10;99.90;;;;;;4954155;28;20985;-68
2021/01/16 02:14:00;;;;;;;33.17;18.50;;;1.20;99.90;;;;;;4966397;28;20184;-68
2021/01/16 02:16:43;;;;;;;24.70;15.07;;;1.10;99.90;;;;;;4968076;28;20176;-68
2021/01/16 02:19:12;;;;;;;24.87;16.10;;;1.10;99.90;;;;;;4952026;28;20181;-68
2021/01/16 02:21:39;;;;;;;20.63;14.53;;;1.10;99.90;;;;;;4960982;28;20692;-65
2021/01/16 02:24:12;;;;;;;21.20;15.17;;;1.10;99.90;;;;;;4964636;28;20435;-65
2021/01/16 02:26:56;;;;;;;25.70;15.77;;;1.10;99.90;;;;;;4973500;28;20483;-65
2021/01/16 02:29:22;;;;;;;23.53;14.87;;;1.00;99.90;;;;;;4953138;28;20999;-65
2021/01/16 02:31:56;;;;;;;24.43;16.23;;;0.90;99.90;;;;;;4954736;28;20559;-66
2021/01/16 02:34:26;;;;;;;19.50;14.73;;;1.00;99.90;;;;;;4968260;28;20478;-65
2021/01/16 02:37:04;;;;;;;19.90;14.57;;;1.10;99.90;;;;;;4956455;28;20444;-66
2021/01/16 02:39:43;;;;;;;24.00;15.70;;;1.10;99.90;;;;;;4970388;28;20471;-65
2021/01/16 02:42:32;;;;;;;26.80;17.67;;;1.10;99.90;;;;;;4952177;28;21101;-65
2021/01/16 02:45:15;;;;;;;26.40;16.27;;;1.10;99.90;;;;;;4921803;29;20536;-65
2021/01/16 02:48:14;;;;;;;23.40;16.93;;;1.00;99.90;;;;;;4969094;28;20936;-66
2021/01/16 02:50:42;;;;;;;24.00;16.33;;;1.10;99.90;;;;;;4947654;28;20531;-66
2021/01/16 02:53:09;;;;;;;23.57;16.63;;;1.20;99.90;;;;;;4936510;28;20977;-65
2021/01/16 02:55:35;;;;;;;22.73;15.60;;;1.10;99.90;;;;;;4956826;28;20573;-65
2021/01/16 02:58:00;;;;;;;24.50;16.47;;;1.10;99.90;;;;;;4956721;28;20941;-65
2021/01/16 03:00:26;;;;;;;26.73;16.80;;;1.00;99.90;;;;;;4958650;28;20189;-66
2021/01/16 03:02:51;;;;;;;24.27;14.93;;;1.00;99.90;;;;;;4955679;28;20180;-65
2021/01/16 03:05:17;;;;;;;22.67;15.73;;;1.00;99.90;;;;;;4971134;28;20184;-65
2021/01/16 03:07:44;;;;;;;25.17;16.07;;;1.00;99.90;;;;;;4971709;28;20185;-65
2021/01/16 03:10:11;;;;;;;22.37;15.40;;;1.10;99.90;;;;;;4958291;28;20431;-65
2021/01/16 03:12:38;;;;;;;25.37;16.20;;;1.10;99.90;;;;;;4972749;28;20452;-65
2021/01/16 03:15:24;;;;;;;24.43;16.20;;;1.00;99.90;;;;;;4967904;28;20436;-65
2021/01/16 03:17:57;;;;;;;24.50;17.13;;;1.00;99.90;;;;;;4969974;28;20493;-68
2021/01/16 03:20:28;;;;;;;24.03;15.50;;;0.90;99.90;;;;;;4939273;28;20472;-68
2021/01/16 03:22:59;;;;;;;26.40;17.63;;;0.90;99.90;;;;;;4962199;28;20452;-67
2021/01/16 03:25:26;;;;;;;24.53;16.40;;;1.00;99.90;;;;;;4953691;28;20436;-69
2021/01/16 03:27:53;;;;;;;25.40;16.43;;;1.00;99.90;;;;;;4944332;28;20777;-69
2021/01/16 03:30:20;;;;;;;29.77;18.60;;;1.00;99.90;;;;;;4938009;28;20437;-68
2021/01/16 03:32:46;;;;;;;28.07;19.00;;;0.90;99.90;;;;;;4956299;28;21158;-68
2021/01/16 03:35:17;;;;;;;27.60;17.30;;;1.00;99.90;;;;;;4964782;28;20467;-68
2021/01/16 03:37:43;;;;;;;25.77;17.73;;;1.00;99.90;;;;;;4963897;28;20464;-68
2021/01/16 03:40:09;;;;;;;25.87;17.60;;;0.90;99.90;;;;;;4952868;28;20524;-68
2021/01/16 03:42:36;;;;;;;25.73;15.80;;;0.90;99.90;;;;;;4955070;28;20456;-68
2021/01/16 03:45:07;;;;;;;25.50;16.27;;;0.90;99.90;;;;;;4953450;28;20530;-68
2021/01/16 03:47:32;;;;;;;37.33;19.50;;;1.00;99.90;;;;;;4952974;28;20444;-69
2021/01/16 03:49:58;;;;;;;28.87;19.73;;;1.10;99.90;;;;;;4963527;28;20433;-68
2021/01/16 03:52:28;;;;;;;23.87;16.70;;;1.10;99.90;;;;;;4953564;28;20213;-68
2021/01/16 03:54:53;;;;;;;26.67;18.50;;;1.10;99.90;;;;;;4965625;28;20190;-68
2021/01/16 03:57:20;;;;;;;29.20;18.97;;;1.10;99.90;;;;;;4960830;28;20957;-69
2021/01/16 03:59:45;;;;;;;25.90;17.50;;;1.00;99.90;;;;;;4957671;28;20181;-69
2021/01/16 04:02:11;;;;;;;29.10;18.40;;;1.10;99.90;;;;;;4953399;28;20475;-69
2021/01/16 04:04:36;;;;;;;27.03;17.90;;;1.00;99.90;;;;;;4959469;28;20557;-69
2021/01/16 04:07:02;;;;;;;27.57;18.90;;;0.90;99.90;;;;;;4964277;28;20271;-68
2021/01/16 04:09:28;;;;;;;26.80;18.40;;;0.80;99.90;;;;;;4935273;28;20239;-69
2021/01/16 04:11:54;;;;;;;28.60;17.27;;;0.90;99.90;;;;;;4947156;28;20247;-69
2021/01/16 04:14:19;;;;;;;26.60;19.70;;;0.80;99.90;;;;;;4951903;28;20184;-70
2021/01/16 04:16:45;;;;;;;28.93;17.97;;;0.80;99.90;;;;;;4956645;28;20800;-68
2021/01/16 04:19:10;;;;;;;26.10;19.10;;;0.80;99.90;;;;;;4954813;28;20200;-66
2021/01/16 04:21:36;;;;;;;30.40;19.03;;;0.80;99.90;;;;;;4965259;28;20228;-69
2021/01/16 04:24:01;;;;;;;31.93;18.00;;;0.80;99.90;;;;;;4960035;28;20188;-69
2021/01/16 04:26:27;;;;;;;25.70;17.50;;;0.80;99.90;;;;;;4948806;28;20606;-69
2021/01/16 04:28:52;;;;;;;31.93;21.20;;;0.70;99.90;;;;;;4955416;28;20196;-70
2021/01/16 04:31:18;;;;;;;34.13;19.30;;;0.70;99.90;;;;;;4943332;28;20220;-69
2021/01/16 04:33:43;;;;;;;27.30;18.77;;;0.70;99.90;;;;;;4943627;28;20555;-68
2021/01/16 04:36:09;;;;;;;33.37;18.97;;;0.70;99.90;;;;;;4969867;28;20615;-69
2021/01/16 04:38:37;;;;;;;31.10;18.50;;;0.70;99.90;;;;;;4946723;28;20182;-69
2021/01/16 04:41:02;;;;;;;28.27;18.67;;;0.70;99.90;;;;;;4957032;28;20208;-69
2021/01/16 04:43:28;;;;;;;29.00;18.43;;;0.70;99.90;;;;;;4963743;28;20576;-70
2021/01/16 04:46:03;;;;;;;27.63;16.70;;;0.60;99.90;;;;;;4953713;28;20205;-68
2021/01/16 04:48:29;;;;;;;25.90;18.03;;;0.70;99.90;;;;;;4950109;28;20539;-68
2021/01/16 04:50:59;;;;;;;29.00;18.13;;;0.70;99.90;;;;;;4971504;28;20917;-69
2021/01/16 04:53:46;;;;;;;29.13;18.90;;;0.80;99.90;;;;;;4971737;28;20446;-69
2021/01/16 04:56:12;;;;;;;33.33;18.73;;;0.70;99.90;;;;;;4971458;28;20490;-67
2021/01/16 04:58:39;;;;;;;26.00;17.60;;;0.80;99.90;;;;;;4971167;28;20451;-70
2021/01/16 05:01:07;;;;;;;28.60;17.50;;;0.80;99.90;;;;;;4971569;28;20633;-68
2021/01/16 05:03:37;;;;;;;32.40;18.03;;;0.90;99.90;;;;;;4971643;28;20987;-69
2021/01/16 05:06:07;;;;;;;30.57;18.27;;;0.90;99.90;;;;;;4985496;28;20432;-69
2021/01/16 05:08:37;;;;;;;25.23;17.10;;;0.90;99.90;;;;;;4971071;28;20434;-69
2021/01/16 05:11:05;;;;;;;25.70;17.57;;;0.90;99.90;;;;;;4971557;28;21242;-69
2021/01/16 05:13:42;;;;;;;29.87;18.57;;;0.80;99.90;;;;;;4971588;28;20462;-69
2021/01/16 05:16:11;;;;;;;26.63;18.47;;;0.90;99.90;;;;;;4971525;28;20999;-69
2021/01/16 05:18:39;;;;;;;29.63;18.13;;;0.80;99.90;;;;;;4970816;28;20494;-69
2021/01/16 05:21:05;;;;;;;28.47;17.47;;;0.80;99.90;;;;;;4971282;28;20475;-69
2021/01/16 05:23:33;;;;;;;29.23;19.43;;;0.90;99.90;;;;;;4971003;28;20438;-69
2021/01/16 05:25:59;;;;;;;24.93;16.57;;;0.80;99.90;;;;;;4970401;28;20638;-68
2021/01/16 05:28:25;;;;;;;32.67;17.70;;;0.90;99.90;;;;;;4968939;28;20444;-69
2021/01/16 05:30:56;;;;;;;34.10;19.10;;;0.90;99.90;;;;;;4969441;28;20670;-69
2021/01/16 05:33:27;;;;;;;29.37;18.30;;;0.80;99.90;;;;;;4970024;28;20644;-68
2021/01/16 05:35:55;;;;;;;24.87;17.67;;;1.00;99.90;;;;;;4970891;28;20431;-69
2021/01/16 05:38:33;;;;;;;27.30;18.03;;;1.00;99.90;;;;;;4971718;28;20490;-70
2021/01/16 05:41:01;;;;;;;27.07;18.73;;;0.90;99.90;;;;;;4975105;28;20475;-69
2021/01/16 05:43:27;;;;;;;29.70;18.60;;;0.90;99.90;;;;;;4974834;28;20450;-68
2021/01/16 05:45:58;;;;;;;30.20;18.17;;;0.90;99.90;;;;;;4974850;28;20829;-68
2021/01/16 05:48:26;;;;;;;30.30;17.50;;;1.00;99.90;;;;;;4975053;28;20180;-69
2021/01/16 05:50:53;;;;;;;28.67;19.37;;;0.90;99.90;;;;;;4975028;28;20466;-69
2021/01/16 05:53:20;;;;;;;30.30;18.40;;;0.90;99.90;;;;;;4975357;28;20522;-68
2021/01/16 05:55:46;;;;;;;26.57;18.27;;;0.90;99.90;;;;;;4974769;28;20493;-68
2021/01/16 05:58:14;;;;;;;31.23;18.90;;;0.80;99.90;;;;;;4974268;28;20464;-70
2021/01/16 06:00:40;;;;;;;28.87;17.30;;;0.80;99.90;;;;;;4974799;28;20467;-69
2021/01/16 06:03:08;;;;;;;31.57;17.83;;;0.80;99.90;;;;;;4973444;28;20458;-68
2021/01/16 06:05:35;;;;;;;23.20;16.03;;;0.80;99.90;;;;;;4974606;28;20435;-68
2021/01/16 06:08:02;;;;;;;27.97;17.27;;;0.80;99.90;;;;;;4974371;28;20430;-69
2021/01/16 06:10:32;;;;;;;26.00;17.30;;;0.80;99.90;;;;;;4974620;28;20440;-69
2021/01/16 06:13:11;;;;;;;33.40;20.27;;;0.70;99.90;;;;;;4974704;28;20530;-69
2021/01/16 06:15:42;;;;;;;23.00;16.40;;;0.70;99.90;;;;;;4974603;28;20439;-69
2021/01/16 06:18:16;;;;;;;28.90;17.37;;;0.80;99.90;;;;;;4974117;28;20439;-69
2021/01/16 06:20:48;;;;;;;25.43;17.43;;;0.80;99.90;;;;;;4973552;28;20459;-69
2021/01/16 06:23:16;;;;;;;29.17;18.00;;;0.80;99.90;;;;;;4974449;28;20436;-67
2021/01/16 06:25:47;;;;;;;31.43;17.37;;;0.90;99.90;;;;;;4970349;28;20470;-69
2021/01/16 06:28:16;;;;;;;25.63;16.37;;;0.90;99.90;;;;;;4973940;28;20471;-69
2021/01/16 06:30:44;;;;;;;23.30;15.50;;;0.90;99.90;;;;;;4974290;28;20451;-69
2021/01/16 06:33:29;;;;;;;29.80;17.90;;;0.90;99.90;;;;;;4973561;28;21118;-68
2021/01/16 06:36:04;;;;;;;27.60;17.23;;;0.90;99.90;;;;;;4974285;28;20439;-68
2021/01/16 06:38:34;;;;;;;24.77;17.10;;;0.90;99.90;;;;;;4973323;28;20498;-67
2021/01/16 06:41:11;;;;;;;31.63;18.97;;;0.80;99.90;;;;;;4973794;28;20991;-67
2021/01/16 06:43:40;;;;;;;30.97;18.70;;;0.80;99.90;;;;;;4961821;28;20439;-68
2021/01/16 06:46:44;;;;;;;31.73;20.10;;;0.80;99.90;;;;;;4973707;28;20978;-68
2021/01/16 06:49:21;;;;;;;30.80;18.17;;;0.80;99.90;;;;;;4984299;28;20462;-67
2021/01/16 06:51:51;;;;;;;30.20;18.37;;;0.80;99.90;;;;;;4959783;28;20459;-68
2021/01/16 06:54:36;;;;;;;27.40;17.43;;;0.90;99.90;;;;;;4973544;28;20439;-67
2021/01/16 06:57:10;;;;;;;31.70;18.93;;;1.00;99.90;;;;;;4973574;28;20466;-68
2021/01/16 06:59:39;;;;;;;28.20;19.50;;;1.00;99.90;;;;;;4972701;28;20455;-69
2021/01/16 07:02:21;;;;;;;24.67;16.70;;;1.10;99.90;;;;;;4973300;28;20475;-69
2021/01/16 07:04:52;;;;;;;25.80;17.90;;;1.00;99.90;;;;;;4973115;28;20431;-69
2021/01/16 07:07:27;;;;;;;29.00;17.00;;;0.90;99.90;;;;;;4973284;28;20463;-68
2021/01/16 07:10:02;;;;;;;26.93;18.30;;;0.90;99.90;;;;;;4973059;28;20886;-68
2021/01/16 07:12:28;;;;;;;28.00;18.10;;;0.90;99.90;;;;;;4960906;28;20452;-68
2021/01/16 07:14:54;;;;;;;29.53;18.77;;;0.80;99.90;;;;;;4974637;28;20439;-68
2021/01/16 07:17:21;;;;;;;31.80;19.93;;;0.80;99.90;;;;;;4981560;28;20443;-67
2021/01/16 07:19:47;;;;;;;28.10;18.50;;;0.70;99.90;;;;;;4979045;28;20548;-69
2021/01/16 07:22:13;;;;;;;27.83;18.67;;;0.80;99.90;;;;;;4972481;28;20918;-68
2021/01/16 07:24:40;;;;;;;28.30;18.70;;;0.80;99.90;;;;;;4973202;28;20176;-68
2021/01/16 07:27:06;;;;;;;31.10;19.70;;;0.80;99.90;;;;;;4973548;28;21035;-67
2021/01/16 07:29:37;;;;;;;30.60;19.70;;;0.80;99.90;;;;;;4972823;28;20573;-70
2021/01/16 07:32:15;;;;;;;28.60;17.33;;;0.70;99.90;;;;;;4972701;28;20196;-69
2021/01/16 07:34:46;;;;;;;26.80;18.00;;;0.80;99.90;;;;;;4970621;28;20443;-69
2021/01/16 07:37:13;;;;;;;27.33;18.00;;;0.80;99.90;;;;;;4973273;28;20582;-70
2021/01/16 07:39:40;;;;;;;28.87;19.83;;;0.80;99.90;;;;;;4973197;28;20435;-68
2021/01/16 07:42:12;;;;;;;25.90;18.30;;;0.80;99.90;;;;;;4969010;28;20466;-69
2021/01/16 07:44:44;;;;;;;31.33;19.40;;;0.90;99.90;;;;;;4972623;28;20432;-68
2021/01/16 07:47:21;;;;;;;26.70;17.70;;;0.90;99.90;;;;;;4972833;28;20431;-69
2021/01/16 07:49:53;;;;;;;30.40;18.20;;;0.80;99.90;;;;;;4972062;28;20427;-69
2021/01/16 07:52:23;;;;;;;31.10;17.97;;;0.80;99.90;;;;;;4972459;28;20462;-68
2021/01/16 07:55:02;;;;;;;33.10;19.97;;;0.90;99.90;;;;;;4972232;28;20498;-69
2021/01/16 07:57:30;;;;;;;34.20;19.87;;;0.90;99.90;;;;;;4972339;28;20439;-68
2021/01/16 08:00:00;;;;;;;29.80;20.40;;;1.00;99.90;;;;;;4971993;28;20446;-69
2021/01/16 08:02:27;;;;;;;31.60;19.40;;;1.10;99.90;;;;;;4971861;28;20494;-68
2021/01/16 08:05:15;;;;;;;34.50;21.83;;;1.20;99.90;;;;;;4971977;28;20860;-67
2021/01/16 08:07:54;;;;;;;27.70;19.43;;;1.20;99.90;;;;;;4970188;28;20447;-67
2021/01/16 08:10:22;;;;;;;29.33;19.40;;;1.10;99.90;;;;;;4969289;28;20443;-67
2021/01/16 08:12:55;;;;;;;30.73;21.37;;;1.00;99.90;;;;;;4971745;28;20464;-67
2021/01/16 08:15:28;;;;;;;28.67;19.23;;;1.00;99.90;;;;;;4972520;28;20454;-68
2021/01/16 08:17:54;;;;;;;29.00;18.10;;;1.10;99.90;;;;;;4971620;28;20467;-67
2021/01/16 08:20:27;;;;;;;28.33;18.73;;;1.10;99.90;;;;;;4971770;28;20755;-68
2021/01/16 08:22:56;;;;;;;27.30;19.40;;;1.10;99.90;;;;;;4971830;28;20478;-68
2021/01/16 08:25:30;;;;;;;29.70;19.50;;;1.10;99.90;;;;;;4972123;28;20447;-67
2021/01/16 08:27:58;;;;;;;26.70;18.47;;;1.10;99.90;;;;;;4971214;28;20869;-68
2021/01/16 08:30:30;;;;;;;28.93;17.70;;;1.10;99.90;;;;;;4972077;28;20773;-68
2021/01/16 08:33:08;;;;;;;29.30;19.10;;;1.10;99.90;;;;;;4971591;28;20479;-67
2021/01/16 08:35:39;;;;;;;32.23;19.57;;;1.10;99.90;;;;;;4971562;28;20505;-66
2021/01/16 08:38:17;;;;;;;25.70;18.47;;;1.20;99.90;;;;;;4971141;28;20446;-68
2021/01/16 08:40:43;;;;;;;26.30;17.77;;;1.30;99.90;;;;;;4971263;28;20534;-68
2021/01/16 08:43:09;;;;;;;27.30;18.80;;;1.30;99.90;;;;;;4971781;28;20459;-68
2021/01/16 08:45:35;;;;;;;26.40;17.30;;;1.30;99.90;;;;;;4971383;28;20529;-68
2021/01/16 08:48:01;;;;;;;29.20;19.13;;;1.20;99.90;;;;;;4967644;28;20213;-67
2021/01/16 08:50:32;;;;;;;25.37;17.00;;;1.10;99.90;;;;;;4969783;28;20987;-67
2021/01/16 08:52:58;;;;;;;25.10;17.70;;;1.20;99.90;;;;;;4971177;28;20617;-68
2021/01/16 08:55:28;;;;;;;26.00;17.57;;;1.20;99.90;;;;;;4971318;28;20448;-68
2021/01/16 08:58:14;;;;;;;27.33;17.60;;;1.10;99.90;;;;;;4970058;28;20904;-68
2021/01/16 09:00:41;;;;;;;24.10;16.83;;;1.20;99.90;;;;;;4970582;28;20470;-68
2021/01/16 09:03:20;;;;;;;23.70;16.10;;;1.30;99.90;;;;;;4971216;28;20440;-67
2021/01/16 09:05:47;;;;;;;22.30;15.23;;;1.30;99.90;;;;;;4971326;28;20486;-67
2021/01/16 09:08:23;;;;;;;25.00;17.20;;;1.40;99.90;;;;;;4971109;28;20444;-67
2021/01/16 09:10:50;;;;;;;21.07;14.50;;;1.50;99.90;;;;;;4972014;28;20549;-67
2021/01/16 09:13:27;;;;;;;21.13;16.17;;;1.50;99.90;;;;;;4975532;28;20933;-67
2021/01/16 09:15:54;;;;;;;25.50;16.70;;;1.50;99.90;;;;;;4975631;28;20450;-67
2021/01/16 09:18:20;;;;;;;20.90;14.80;;;1.50;99.90;;;;;;4975954;28;20963;-67
2021/01/16 09:20:59;;;;;;;21.00;14.93;;;1.50;99.90;;;;;;4974953;28;20475;-67
2021/01/16 09:23:27;;;;;;;23.00;16.77;;;1.60;99.90;;;;;;4975135;28;20186;-66
2021/01/16 09:26:04;;;;;;;21.93;16.30;;;1.60;99.90;;;;;;4974978;28;20442;-67
2021/01/16 09:28:54;;;;;;;21.80;17.07;;;1.70;99.90;;;;;;4964354;28;20439;-67
2021/01/16 09:31:27;;;;;;;22.63;14.73;;;1.70;99.90;;;;;;4959213;28;20969;-67
2021/01/16 09:34:03;;;;;;;24.40;13.03;;;1.70;99.90;;;;;;4968429;28;20427;-67
2021/01/16 09:36:41;;;;;;;19.13;11.47;;;1.60;99.90;;;;;;4974918;28;20773;-67
2021/01/16 09:39:13;;;;;;;17.90;12.70;;;1.60;99.90;;;;;;4974522;28;20427;-68
2021/01/16 09:41:38;;;;;;;17.40;11.80;;;1.70;99.90;;;;;;4974350;28;20502;-68
2021/01/16 09:44:04;;;;;;;17.10;12.53;;;1.60;99.90;;;;;;4974302;28;20968;-67
2021/01/16 09:46:38;;;;;;;19.43;13.20;;;1.70;99.90;;;;;;4974446;28;20200;-68
2021/01/16 09:49:06;;;;;;;16.63;11.90;;;1.80;99.90;;;;;;4973907;28;20531;-68
2021/01/16 09:51:34;;;;;;;15.17;11.43;;;1.90;99.90;;;;;;4974535;28;20470;-66
2021/01/16 09:54:09;;;;;;;15.87;11.70;;;1.90;99.90;;;;;;4974627;28;20450;-66
2021/01/16 09:56:49;;;;;;;21.70;13.37;;;1.80;99.90;;;;;;4974505;28;20445;-67
2021/01/16 09:59:23;;;;;;;18.13;13.10;;;1.90;99.90;;;;;;4973229;28;20952;-68
2021/01/16 10:02:07;;;;;;;16.40;12.50;;;2.00;99.90;;;;;;4973955;28;20526;-68
2021/01/16 10:04:41;;;;;;;17.40;12.90;;;2.10;99.90;;;;;;4973737;28;20930;-66
2021/01/16 10:07:09;;;;;;;19.27;13.20;;;2.20;99.90;;;;;;4974272;28;20521;-68
2021/01/16 10:09:45;;;;;;;16.37;11.60;;;2.30;99.90;;;;;;4973342;28;20442;-67
2021/01/16 10:12:32;;;;;;;13.77;11.43;;;2.30;99.90;;;;;;4964935;28;20592;-67
2021/01/16 10:15:04;;;;;;;12.30;10.27;;;2.20;99.90;;;;;;4970706;28;20445;-67
2021/01/16 10:17:54;;;;;;;15.03;10.73;;;2.20;99.90;;;;;;4974121;28;20471;-68
2021/01/16 10:20:20;;;;;;;15.60;12.00;;;2.20;99.90;;;;;;4971211;28;20831;-67
2021/01/16 10:22:53;;;;;;;13.90;11.63;;;2.10;99.90;;;;;;4972683;28;20479;-68
2021/01/16 10:25:36;;;;;;;15.43;11.07;;;2.20;99.90;;;;;;4974440;28;20774;-68
2021/01/16 10:28:03;;;;;;;17.93;12.23;;;2.20;99.90;;;;;;4974048;28;20853;-67
2021/01/16 10:30:30;;;;;;;15.50;10.53;;;2.40;99.90;;;;;;4973928;28;20436;-67
2021/01/16 10:32:56;;;;;;;13.93;11.10;;;2.40;99.90;;;;;;4974098;28;20447;-67
2021/01/16 10:35:29;;;;;;;16.40;12.53;;;2.30;99.90;;;;;;4973807;28;20466;-68
2021/01/16 10:37:57;;;;;;;12.47;9.43;;;2.30;99.90;;;;;;4973712;28;20207;-67
2021/01/16 10:40:23;;;;;;;12.90;9.17;;;2.40;99.90;;;;;;4969796;28;20537;-68
2021/01/16 10:42:54;;;;;;;15.10;10.37;;;2.50;99.90;;;;;;4970278;28;20539;-65
2021/01/16 10:45:22;;;;;;;12.60;8.67;;;2.60;99.90;;;;;;4969652;28;20469;-68
2021/01/16 10:47:49;;;;;;;11.83;8.53;;;2.60;99.90;;;;;;4969874;28;20454;-67
2021/01/16 10:50:24;;;;;;;10.97;9.07;;;2.50;99.90;;;;;;4970260;28;20438;-67
2021/01/16 10:53:06;;;;;;;14.87;9.87;;;2.70;99.90;;;;;;4970583;28;20579;-68
2021/01/16 10:55:55;;;;;;;10.97;8.70;;;2.80;99.90;;;;;;4970585;28;20455;-67
2021/01/16 10:58:25;;;;;;;14.53;8.80;;;2.90;99.90;;;;;;4970877;28;21124;-68
2021/01/16 11:00:54;;;;;;;12.53;8.80;;;2.90;99.90;;;;;;4970444;28;20471;-68
2021/01/16 11:03:21;;;;;;;10.33;8.17;;;2.90;99.90;;;;;;4970174;28;20640;-68
2021/01/16 11:05:49;;;;;;;9.63;7.70;;;3.10;99.90;;;;;;4970450;28;20446;-67
2021/01/16 11:08:24;;;;;;;11.63;9.00;;;3.10;99.90;;;;;;4969820;28;20474;-68
2021/01/16 11:10:50;;;;;;;11.80;8.87;;;3.10;99.90;;;;;;4970420;28;20972;-68
2021/01/16 11:13:30;;;;;;;15.40;10.53;;;3.00;99.90;;;;;;4969936;28;20482;-68
2021/01/16 11:16:12;;;;;;;11.17;7.73;;;3.10;99.90;;;;;;4970162;28;20562;-68
2021/01/16 11:18:38;;;;;;;12.40;8.57;;;3.30;99.90;;;;;;4969846;28;20463;-69
2021/01/16 11:21:08;;;;;;;10.93;7.77;;;4.00;99.90;;;;;;4968863;28;20475;-68
2021/01/16 11:23:45;;;;;;;10.20;8.57;;;4.50;99.90;;;;;;4969645;28;20538;-69
2021/01/16 11:26:12;;;;;;;12.30;10.07;;;4.60;99.90;;;;;;4969695;28;20941;-68
2021/01/16 11:28:53;;;;;;;10.80;8.90;;;4.90;99.90;;;;;;4970493;28;20444;-70
2021/01/16 11:31:33;;;;;;;11.33;8.83;;;4.40;99.90;;;;;;4954269;28;20467;-66
2021/01/16 11:34:20;;;;;;;9.10;7.97;;;4.40;99.90;;;;;;4984271;28;20482;-67
2021/01/16 11:37:14;;;;;;;14.90;9.90;;;4.40;99.90;;;;;;4970102;28;20447;-67
2021/01/16 11:39:45;;;;;;;9.87;7.70;;;4.10;99.90;;;;;;4960434;28;20890;-68
2021/01/16 11:42:12;;;;;;;8.53;7.07;;;4.10;99.90;;;;;;4970207;28;20467;-69
2021/01/16 11:45:00;;;;;;;13.17;9.07;;;4.40;99.90;;;;;;4969944;28;20454;-67
2021/01/16 11:47:27;;;;;;;10.93;9.10;;;4.60;99.90;;;;;;4968700;28;20868;-68
2021/01/16 11:49:53;;;;;;;9.23;8.23;;;4.90;99.90;;;;;;4968568;28;20542;-67
2021/01/16 11:52:19;;;;;;;7.93;6.97;;;4.60;99.90;;;;;;4968926;28;20522;-67
2021/01/16 11:54:44;;;;;;;10.87;7.97;;;4.50;99.90;;;;;;4969617;28;20448;-67
2021/01/16 11:57:12;;;;;;;7.23;6.53;;;4.30;99.90;;;;;;4968216;28;20188;-67
2021/01/16 11:59:40;;;;;;;11.27;7.10;;;4.10;99.90;;;;;;4969346;28;20188;-66
2021/01/16 12:02:14;;;;;;;7.50;5.87;;;4.10;99.90;;;;;;4969272;28;20475;-67
2021/01/16 12:04:44;;;;;;;8.07;6.07;;;3.90;99.90;;;;;;4969420;28;20539;-68
2021/01/16 12:07:16;;;;;;;7.00;5.50;;;3.90;99.90;;;;;;4969309;28;20431;-67
2021/01/16 12:09:43;;;;;;;8.10;5.67;;;3.70;99.90;;;;;;4969123;28;20439;-68
2021/01/16 12:12:11;;;;;;;6.53;5.27;;;3.20;99.90;;;;;;4970373;28;20566;-68
2021/01/16 12:14:37;;;;;;;11.23;7.60;;;3.40;99.90;;;;;;4968774;28;20987;-68
2021/01/16 12:17:11;;;;;;;6.10;4.90;;;3.80;99.90;;;;;;4968872;28;20443;-68
2021/01/16 12:19:37;;;;;;;7.73;5.73;;;5.20;99.90;;;;;;4968395;28;20471;-67
2021/01/16 12:22:05;;;;;;;7.37;5.60;;;6.10;99.90;;;;;;4969014;28;21000;-67
2021/01/16 12:24:31;;;;;;;4.80;4.27;;;5.80;99.90;;;;;;4969127;28;20788;-67
2021/01/16 12:26:59;;;;;;;6.00;5.07;;;5.40;99.90;;;;;;4969189;28;20442;-68
2021/01/16 12:29:42;;;;;;;5.20;4.60;;;5.20;99.90;;;;;;4971569;28;20276;-66
2021/01/16 12:32:12;;;;;;;4.83;4.33;;;5.00;99.90;;;;;;4966659;28;20573;-66
2021/01/16 12:34:52;;;;;;;6.23;4.87;;;4.80;99.90;;;;;;4968455;28;20506;-65
2021/01/16 12:37:32;;;;;;;5.83;5.17;;;4.50;99.90;;;;;;4956350;28;20510;-65
2021/01/16 12:39:59;;;;;;;6.83;5.00;;;4.40;99.90;;;;;;4950142;28;20448;-66
2021/01/16 12:42:25;;;;;;;6.33;5.27;;;4.20;99.90;;;;;;4966530;28;20911;-66
2021/01/16 12:44:52;;;;;;;9.97;5.67;;;4.20;99.90;;;;;;4968175;28;20450;-67
2021/01/16 12:47:19;;;;;;;6.37;4.97;;;4.10;99.90;;;;;;4966251;28;20444;-66
2021/01/16 12:49:52;;;;;;;5.00;4.50;;;3.80;99.90;;;;;;4967937;28;20502;-67
2021/01/16 12:52:26;;;;;;;5.30;4.20;;;3.80;99.90;;;;;;4960652;28;20474;-67
2021/01/16 12:55:02;;;;;;;5.40;4.90;;;3.80;99.90;;;;;;4968771;28;20446;-67
2021/01/16 12:57:29;;;;;;;6.13;4.87;;;3.80;99.90;;;;;;4968545;28;20793;-65